Time;durP1;ratioP1;P1;durP2;ratioP2;P2;SDS_P1;SDS_P2;PMS_P1;PMS_P2;Temp;Humidity;BMP_temperature;BMP_pressure;BME280_temperature;BME280_humidity;BME280_pressure;Samples;Min_cycle;Max_cycle;Signal;HPM_P1;HPM_P2
2022/01/24 00:01:06;;;;;;;17.77;11.57;;;6.30;99.90;;;;;;5050923;28;20660;-69
2022/01/24 00:03:33;;;;;;;18.63;10.47;;;6.30;99.90;;;;;;5051170;28;20211;-69
2022/01/24 00:06:00;;;;;;;17.80;11.20;;;6.30;99.90;;;;;;5050058;28;20645;-68
2022/01/24 00:08:29;;;;;;;20.37;10.97;;;6.30;99.90;;;;;;5051794;28;20230;-68
2022/01/24 00:11:04;;;;;;;21.27;11.10;;;6.30;99.90;;;;;;5051114;28;20225;-68
2022/01/24 00:14:18;;;;;;;18.73;10.70;;;6.30;99.90;;;;;;5051682;28;20290;-69
2022/01/24 00:16:57;;;;;;;18.63;11.40;;;6.30;99.90;;;;;;5049303;28;20201;-68
2022/01/24 00:27:42;;;;;;;20.77;11.07;;;6.30;99.90;;;;;;5051046;28;20700;-69
2022/01/24 00:30:10;;;;;;;20.60;11.60;;;6.30;99.90;;;;;;5050729;28;20853;-69
2022/01/24 00:32:37;;;;;;;18.60;11.77;;;6.30;99.90;;;;;;5058681;28;20202;-68
2022/01/24 00:35:04;;;;;;;19.13;12.10;;;6.30;99.90;;;;;;5059311;28;20665;-69
2022/01/24 00:37:33;;;;;;;18.57;11.37;;;6.30;99.90;;;;;;5050415;28;20269;-69
2022/01/24 00:40:00;;;;;;;17.50;10.73;;;6.30;99.90;;;;;;5051275;28;20298;-69
2022/01/24 00:42:32;;;;;;;18.97;11.37;;;6.30;99.90;;;;;;5049260;28;20202;-69
2022/01/24 00:45:10;;;;;;;20.90;12.50;;;6.30;99.90;;;;;;5050888;28;20614;-69
2022/01/24 00:48:01;;;;;;;22.00;11.63;;;6.30;99.90;;;;;;5050977;28;20715;-69
2022/01/24 00:53:30;;;;;;;20.27;11.77;;;6.30;99.90;;;;;;5050226;28;20214;-69
2022/01/24 00:55:57;;;;;;;20.63;12.20;;;6.40;99.90;;;;;;5050559;28;20209;-69
2022/01/24 00:58:24;;;;;;;21.87;12.93;;;6.30;99.90;;;;;;5046078;28;20687;-68
2022/01/24 01:00:52;;;;;;;20.70;12.67;;;6.30;99.90;;;;;;5046780;28;20207;-69
2022/01/24 01:03:19;;;;;;;19.90;11.73;;;6.30;99.90;;;;;;5050629;28;20589;-68
2022/01/24 01:06:02;;;;;;;20.53;11.20;;;6.30;99.90;;;;;;5056353;28;20250;-68
2022/01/24 01:19:30;;;;;;;17.60;11.03;;;6.30;99.90;;;;;;5049203;28;20692;-74
2022/01/24 01:21:57;;;;;;;19.67;11.33;;;6.30;99.90;;;;;;5049371;28;20223;-73
2022/01/24 01:24:25;;;;;;;20.43;12.57;;;6.30;99.90;;;;;;5047823;28;20195;-73
2022/01/24 01:26:57;;;;;;;22.13;13.10;;;6.40;99.90;;;;;;5050456;28;20218;-74
2022/01/24 01:29:28;;;;;;;19.90;11.47;;;6.30;99.90;;;;;;5049960;28;20258;-73
2022/01/24 01:32:01;;;;;;;22.13;12.50;;;6.30;99.90;;;;;;5050480;28;20594;-73
2022/01/24 01:34:52;;;;;;;23.00;13.40;;;6.40;99.90;;;;;;5048428;28;20615;-74
2022/01/24 01:37:48;;;;;;;21.27;12.50;;;6.30;99.90;;;;;;5050388;28;20207;-74
2022/01/24 01:56:56;;;;;;;20.27;12.20;;;6.20;99.90;;;;;;5048236;28;20676;-74
2022/01/24 01:59:23;;;;;;;22.17;12.77;;;6.20;99.90;;;;;;5053341;28;20211;-74
2022/01/24 02:01:50;;;;;;;19.50;11.90;;;6.20;99.90;;;;;;5053779;28;20255;-73
2022/01/24 02:04:20;;;;;;;20.47;12.57;;;6.20;99.90;;;;;;5052831;28;20221;-74
2022/01/24 02:06:47;;;;;;;22.37;12.23;;;6.20;99.90;;;;;;5052457;28;20244;-74
2022/01/24 02:09:16;;;;;;;21.07;12.20;;;6.20;99.90;;;;;;5052419;28;20219;-73
2022/01/24 02:11:43;;;;;;;21.33;12.03;;;6.20;99.90;;;;;;5052866;28;20601;-73
2022/01/24 02:14:14;;;;;;;23.57;13.23;;;6.30;99.90;;;;;;5053483;28;20268;-73
2022/01/24 02:16:47;;;;;;;19.47;12.23;;;6.20;99.90;;;;;;5051917;28;20199;-74
2022/01/24 02:19:26;;;;;;;22.27;13.20;;;6.30;99.90;;;;;;5052492;28;20289;-73
2022/01/24 02:22:38;;;;;;;21.63;12.43;;;6.20;99.90;;;;;;5052495;28;20242;-73
2022/01/24 02:24:58;;;;;;;22.13;13.33;;;6.20;99.90;;;;;;5038222;28;20198;-73
2022/01/24 02:27:28;;;;;;;22.43;12.47;;;6.20;99.90;;;;;;5053491;28;20547;-73
2022/01/24 02:30:09;;;;;;;19.33;11.83;;;6.10;99.90;;;;;;5053409;28;20578;-73
2022/01/24 02:32:39;;;;;;;21.90;12.57;;;6.20;99.90;;;;;;5052983;28;20294;-73
2022/01/24 02:35:06;;;;;;;22.93;13.97;;;6.20;99.90;;;;;;5051489;28;20242;-74
2022/01/24 02:37:35;;;;;;;20.87;13.30;;;6.20;99.90;;;;;;5052744;28;20261;-73
2022/01/24 02:40:09;;;;;;;22.60;13.07;;;6.20;99.90;;;;;;5053584;28;20241;-74
2022/01/24 02:48:24;;;;;;;22.67;13.13;;;6.30;99.90;;;;;;5053131;28;20229;-74
2022/01/24 02:53:52;;;;;;;21.90;13.43;;;6.20;99.90;;;;;;5049863;28;20458;-73
2022/01/24 02:56:20;;;;;;;21.17;13.37;;;6.20;99.90;;;;;;5051177;28;20203;-73
2022/01/24 02:58:46;;;;;;;22.33;13.57;;;6.30;99.90;;;;;;5052344;28;20273;-73
2022/01/24 03:01:13;;;;;;;21.90;12.80;;;6.20;99.90;;;;;;5052791;28;20252;-74
2022/01/24 03:03:41;;;;;;;22.77;13.47;;;6.20;99.90;;;;;;5051835;28;20257;-73
2022/01/24 03:06:08;;;;;;;21.17;12.83;;;6.20;99.90;;;;;;5050197;28;20724;-73
2022/01/24 03:08:37;;;;;;;22.60;13.03;;;6.10;99.90;;;;;;5052473;28;20689;-73
2022/01/24 03:11:06;;;;;;;22.63;13.40;;;6.20;99.90;;;;;;5052367;28;20252;-73
2022/01/24 03:13:36;;;;;;;23.10;13.83;;;6.20;99.90;;;;;;5051761;28;20207;-73
2022/01/24 03:16:06;;;;;;;22.97;14.03;;;6.20;99.90;;;;;;5052379;28;20203;-73
2022/01/24 03:18:33;;;;;;;22.80;14.13;;;6.20;99.90;;;;;;5050797;28;20244;-73
2022/01/24 03:21:00;;;;;;;25.17;14.60;;;6.20;99.90;;;;;;5044960;28;20203;-73
2022/01/24 03:23:28;;;;;;;23.77;14.63;;;6.20;99.90;;;;;;5051232;28;20207;-74
2022/01/24 03:25:55;;;;;;;24.03;14.17;;;6.20;99.90;;;;;;5051573;28;20199;-73
2022/01/24 03:28:24;;;;;;;22.27;13.20;;;6.20;99.90;;;;;;5052833;28;20222;-73
2022/01/24 03:30:52;;;;;;;21.60;14.03;;;6.20;99.90;;;;;;5051199;28;20195;-73
2022/01/24 03:33:19;;;;;;;23.07;14.07;;;6.20;99.90;;;;;;5050184;28;20257;-73
2022/01/24 03:35:46;;;;;;;21.83;12.70;;;6.20;99.90;;;;;;5051826;28;20207;-73
2022/01/24 03:38:14;;;;;;;22.30;13.67;;;6.20;99.90;;;;;;5051278;28;20241;-73
2022/01/24 03:40:41;;;;;;;23.53;14.07;;;6.20;99.90;;;;;;5049495;28;20685;-73
2022/01/24 03:43:09;;;;;;;21.13;12.90;;;6.20;99.90;;;;;;5050384;28;20629;-73
2022/01/24 03:45:44;;;;;;;22.43;13.47;;;6.20;99.90;;;;;;5050356;28;20230;-73
2022/01/24 03:48:26;;;;;;;21.60;13.40;;;6.10;99.90;;;;;;5049035;28;20262;-74
2022/01/24 03:50:53;;;;;;;21.97;12.87;;;6.10;99.90;;;;;;5050129;28;20622;-74
2022/01/24 03:53:21;;;;;;;20.97;12.50;;;6.10;99.90;;;;;;5052466;28;20205;-74
2022/01/24 03:55:48;;;;;;;21.60;13.07;;;6.20;99.90;;;;;;5050403;28;20665;-74
2022/01/24 03:58:16;;;;;;;23.87;14.03;;;6.20;99.90;;;;;;5052444;28;20203;-74
2022/01/24 04:00:44;;;;;;;21.57;12.73;;;6.20;99.90;;;;;;5051945;28;20523;-74
2022/01/24 04:03:11;;;;;;;23.90;14.30;;;6.10;99.90;;;;;;5051019;28;20200;-73
2022/01/24 04:05:38;;;;;;;23.00;13.83;;;6.10;99.90;;;;;;5050446;28;20195;-74
2022/01/24 04:08:06;;;;;;;22.40;13.80;;;6.10;99.90;;;;;;5049188;28;20203;-74
2022/01/24 04:10:41;;;;;;;21.77;12.87;;;6.10;99.90;;;;;;5052047;28;20206;-74
2022/01/24 04:13:21;;;;;;;21.63;13.30;;;6.10;99.90;;;;;;5051473;28;20206;-73
2022/01/24 04:16:10;;;;;;;23.20;13.07;;;6.10;99.90;;;;;;5048835;28;20199;-73
2022/01/24 04:18:45;;;;;;;24.80;14.47;;;6.10;99.90;;;;;;5050526;28;20679;-74
2022/01/24 04:21:21;;;;;;;22.97;12.97;;;6.10;99.90;;;;;;5027598;28;20253;-73
2022/01/24 04:23:51;;;;;;;24.17;14.90;;;6.10;99.90;;;;;;5030085;28;20290;-74
2022/01/24 04:26:18;;;;;;;24.07;14.17;;;6.20;99.90;;;;;;5031739;28;20214;-73
2022/01/24 04:28:45;;;;;;;23.77;14.57;;;6.10;99.90;;;;;;5031822;28;20227;-73
2022/01/24 04:31:13;;;;;;;22.27;13.37;;;6.00;99.90;;;;;;5031414;28;20246;-73
2022/01/24 04:33:40;;;;;;;24.47;14.70;;;6.10;99.90;;;;;;5035097;28;20264;-73
2022/01/24 04:36:07;;;;;;;25.10;13.93;;;6.10;99.90;;;;;;5051468;28;20538;-73
2022/01/24 04:38:35;;;;;;;23.63;14.27;;;6.10;99.90;;;;;;5051714;28;20256;-74
2022/01/24 04:41:06;;;;;;;31.33;19.40;;;6.10;99.90;;;;;;5051682;28;20207;-69
2022/01/24 04:43:49;;;;;;;28.33;17.77;;;6.10;99.90;;;;;;5051993;28;20221;-69
2022/01/24 04:46:31;;;;;;;26.30;16.43;;;6.10;99.90;;;;;;5051640;28;20293;-69
2022/01/24 04:51:55;;;;;;;23.00;14.10;;;6.10;99.90;;;;;;5051832;28;20205;-68
2022/01/24 04:56:57;;;;;;;23.07;14.13;;;6.10;99.90;;;;;;5051487;28;20182;-68
2022/01/24 04:59:24;;;;;;;24.23;14.00;;;6.00;99.90;;;;;;5051436;28;20203;-68
2022/01/24 05:01:53;;;;;;;24.07;15.00;;;6.00;99.90;;;;;;5051063;28;20719;-68
2022/01/24 05:04:20;;;;;;;25.20;14.90;;;6.10;99.90;;;;;;5051175;28;20416;-68
2022/01/24 05:06:47;;;;;;;22.17;13.30;;;6.00;99.90;;;;;;5051294;28;20691;-68
2022/01/24 05:09:14;;;;;;;22.27;13.37;;;6.00;99.90;;;;;;5051221;28;20685;-68
2022/01/24 05:11:47;;;;;;;25.23;15.10;;;6.00;99.90;;;;;;5051056;28;20199;-68
2022/01/24 05:25:14;;;;;;;25.23;14.80;;;6.00;99.90;;;;;;5050991;28;20249;-68
2022/01/24 05:27:41;;;;;;;26.00;14.77;;;6.00;99.90;;;;;;5050942;28;20649;-68
2022/01/24 05:30:09;;;;;;;28.60;15.13;;;6.00;99.90;;;;;;5051197;28;20655;-69
2022/01/24 05:32:37;;;;;;;22.77;12.67;;;6.00;99.90;;;;;;5050729;28;20718;-69
2022/01/24 05:35:05;;;;;;;22.93;12.87;;;6.10;99.90;;;;;;5050369;28;20677;-69
2022/01/24 05:37:32;;;;;;;22.93;13.67;;;5.90;99.90;;;;;;5050847;28;20252;-68
2022/01/24 05:39:59;;;;;;;19.20;11.50;;;5.90;99.90;;;;;;5050960;28;20264;-68
2022/01/24 05:42:26;;;;;;;21.83;13.40;;;5.90;99.90;;;;;;5050912;28;20214;-68
2022/01/24 05:44:53;;;;;;;21.30;13.20;;;5.80;99.90;;;;;;5050469;28;20207;-69
2022/01/24 05:47:20;;;;;;;23.40;13.73;;;5.80;99.90;;;;;;5050859;28;20290;-68
2022/01/24 05:49:48;;;;;;;21.63;13.37;;;5.90;99.90;;;;;;5050683;28;20296;-69
2022/01/24 05:52:16;;;;;;;25.17;14.90;;;5.90;99.90;;;;;;5050783;28;20199;-68
2022/01/24 05:54:43;;;;;;;24.57;14.60;;;6.00;99.90;;;;;;5050283;28;20198;-68
2022/01/24 05:57:11;;;;;;;27.77;15.97;;;5.90;99.90;;;;;;5050811;28;20195;-68
2022/01/24 05:59:38;;;;;;;26.37;14.80;;;5.90;99.90;;;;;;5050603;28;20258;-69
2022/01/24 06:02:06;;;;;;;23.40;13.23;;;5.80;99.90;;;;;;5050696;28;20925;-68
2022/01/24 06:04:33;;;;;;;25.93;15.23;;;5.90;99.90;;;;;;5050198;28;20719;-68
2022/01/24 06:07:01;;;;;;;23.83;15.33;;;5.90;99.90;;;;;;5049004;28;20245;-68
2022/01/24 06:09:28;;;;;;;25.03;15.13;;;5.90;99.90;;;;;;5055396;28;20293;-68
2022/01/24 06:11:55;;;;;;;25.10;15.43;;;5.90;99.90;;;;;;5050657;28;20203;-69
2022/01/24 06:14:23;;;;;;;24.30;14.60;;;5.90;99.90;;;;;;5032505;28;20214;-68
2022/01/24 06:16:50;;;;;;;25.37;14.27;;;5.90;99.90;;;;;;5050284;28;20214;-68
2022/01/24 06:19:17;;;;;;;27.03;15.00;;;5.90;99.90;;;;;;5048445;28;20203;-68
2022/01/24 06:21:45;;;;;;;22.60;14.03;;;5.90;99.90;;;;;;5058069;28;20202;-69
2022/01/24 06:24:14;;;;;;;25.67;14.80;;;5.90;99.90;;;;;;5066206;28;20202;-69
2022/01/24 06:26:43;;;;;;;25.87;14.60;;;5.90;99.90;;;;;;5048081;28;20574;-68
2022/01/24 06:29:11;;;;;;;22.63;13.63;;;5.90;99.90;;;;;;5050378;28;20241;-68
2022/01/24 06:31:38;;;;;;;22.37;13.57;;;5.90;99.90;;;;;;5053024;28;20234;-68
2022/01/24 06:34:05;;;;;;;24.03;14.93;;;5.90;99.90;;;;;;5053411;28;20215;-68
2022/01/24 06:36:32;;;;;;;21.07;12.77;;;5.90;99.90;;;;;;5053896;28;20244;-69
2022/01/24 06:39:00;;;;;;;23.90;13.60;;;5.90;99.90;;;;;;5052766;28;20593;-69
2022/01/24 06:41:32;;;;;;;24.80;14.30;;;5.90;99.90;;;;;;5054062;28;20214;-69
2022/01/24 06:43:59;;;;;;;23.10;13.87;;;5.80;99.90;;;;;;5052232;28;20294;-68
2022/01/24 06:46:26;;;;;;;23.27;12.63;;;5.80;99.90;;;;;;5052588;28;20199;-68
2022/01/24 06:48:53;;;;;;;25.27;15.13;;;5.80;99.90;;;;;;5052461;28;20260;-68
2022/01/24 06:51:21;;;;;;;22.97;13.63;;;5.80;99.90;;;;;;5053032;28;20207;-69
2022/01/24 06:53:48;;;;;;;23.90;14.33;;;5.80;99.90;;;;;;5053215;28;20249;-68
2022/01/24 06:56:16;;;;;;;26.60;15.80;;;5.80;99.90;;;;;;5052453;28;20211;-68
2022/01/24 06:58:44;;;;;;;26.73;16.43;;;5.90;99.90;;;;;;5052429;28;20622;-68
2022/01/24 07:01:11;;;;;;;26.77;16.40;;;5.90;99.90;;;;;;5052893;28;20211;-69
2022/01/24 07:03:38;;;;;;;27.60;17.53;;;6.00;99.90;;;;;;5052640;28;20207;-68
2022/01/24 07:06:05;;;;;;;29.10;17.30;;;6.00;99.90;;;;;;5051079;28;20245;-68
2022/01/24 07:08:33;;;;;;;29.50;17.00;;;6.00;99.90;;;;;;5052928;28;20207;-69
2022/01/24 07:11:00;;;;;;;28.70;17.57;;;6.00;99.90;;;;;;5053027;28;20266;-68
2022/01/24 07:13:27;;;;;;;28.07;17.67;;;6.00;99.90;;;;;;5053460;28;20694;-68
2022/01/24 07:16:00;;;;;;;28.73;17.17;;;6.00;99.90;;;;;;5052984;28;20203;-68
2022/01/24 07:21:11;;;;;;;30.63;18.67;;;6.00;99.90;;;;;;5052878;28;20214;-68
2022/01/24 07:23:38;;;;;;;28.27;18.30;;;6.00;99.90;;;;;;5051872;28;20719;-73
2022/01/24 07:26:05;;;;;;;31.83;18.50;;;6.00;99.90;;;;;;5052520;28;20642;-68
2022/01/24 07:28:32;;;;;;;27.27;17.17;;;6.00;99.90;;;;;;5052440;28;20253;-68
2022/01/24 07:31:00;;;;;;;34.17;16.93;;;6.10;99.90;;;;;;5051354;28;20277;-68
2022/01/24 07:33:29;;;;;;;28.70;17.00;;;6.00;99.90;;;;;;5051345;28;20211;-68
2022/01/24 07:35:56;;;;;;;27.23;16.37;;;6.10;99.90;;;;;;5052098;28;20219;-68
2022/01/24 07:38:23;;;;;;;25.17;15.23;;;6.10;99.90;;;;;;5052993;28;20268;-68
2022/01/24 07:40:53;;;;;;;27.13;15.60;;;6.10;99.90;;;;;;5052384;28;20215;-68
2022/01/24 07:43:20;;;;;;;26.70;15.43;;;6.00;99.90;;;;;;5052150;28;20622;-68
2022/01/24 07:45:48;;;;;;;25.27;14.93;;;6.10;99.90;;;;;;5050186;28;20599;-69
2022/01/24 07:48:18;;;;;;;26.80;15.47;;;6.10;99.90;;;;;;5051036;28;20629;-69
2022/01/24 07:50:47;;;;;;;24.70;15.07;;;6.10;99.90;;;;;;5050975;28;20207;-68
2022/01/24 07:53:16;;;;;;;25.13;16.00;;;6.20;99.90;;;;;;5051296;28;20346;-69
2022/01/24 07:55:44;;;;;;;25.50;15.47;;;6.20;99.90;;;;;;5052088;28;20203;-68
2022/01/24 07:58:11;;;;;;;23.87;14.07;;;6.10;99.90;;;;;;5051012;28;20257;-68
2022/01/24 08:00:38;;;;;;;27.67;15.63;;;6.20;99.90;;;;;;5052437;28;20260;-68
2022/01/24 08:03:07;;;;;;;24.57;14.20;;;6.10;99.90;;;;;;5050676;28;20203;-68
2022/01/24 08:05:36;;;;;;;24.87;14.93;;;6.10;99.90;;;;;;5031009;28;20196;-68
2022/01/24 08:08:05;;;;;;;28.50;13.93;;;6.20;99.90;;;;;;5031052;28;20456;-68
2022/01/24 08:10:32;;;;;;;22.80;14.53;;;6.20;99.90;;;;;;5052121;28;20276;-68
2022/01/24 08:12:59;;;;;;;24.90;14.60;;;6.10;99.90;;;;;;5051474;28;20219;-68
2022/01/24 08:15:26;;;;;;;24.40;13.70;;;6.10;99.90;;;;;;5051183;28;20701;-68
2022/01/24 08:17:53;;;;;;;24.97;14.00;;;6.10;99.90;;;;;;5050784;28;20256;-68
2022/01/24 08:20:21;;;;;;;24.63;14.57;;;6.20;99.90;;;;;;5051952;28;20207;-69
2022/01/24 08:22:49;;;;;;;27.60;14.60;;;6.20;99.90;;;;;;5051756;28;20286;-68
2022/01/24 08:25:17;;;;;;;24.10;14.50;;;6.10;99.90;;;;;;5051284;28;20203;-68
2022/01/24 08:27:46;;;;;;;23.33;14.13;;;6.10;99.90;;;;;;5051080;28;20203;-69
2022/01/24 08:30:16;;;;;;;24.17;14.97;;;6.20;99.90;;;;;;5051403;28;20227;-69
2022/01/24 08:32:43;;;;;;;24.80;15.40;;;6.20;99.90;;;;;;5050454;28;20203;-68
2022/01/24 08:35:10;;;;;;;24.13;14.63;;;6.20;99.90;;;;;;5051032;28;20244;-68
2022/01/24 08:37:38;;;;;;;27.60;14.93;;;6.20;99.90;;;;;;5050654;28;20650;-68
2022/01/24 08:40:09;;;;;;;24.97;14.93;;;6.30;99.90;;;;;;5050276;28;20711;-69
2022/01/24 08:42:41;;;;;;;29.07;16.30;;;6.30;99.90;;;;;;5051372;28;20284;-69
2022/01/24 08:47:54;;;;;;;24.90;14.90;;;6.40;99.90;;;;;;5051500;28;20645;-68
2022/01/24 08:50:26;;;;;;;24.87;15.20;;;6.40;99.90;;;;;;5049303;28;20490;-68
2022/01/24 08:52:53;;;;;;;25.10;14.70;;;6.40;99.90;;;;;;5051052;28;20207;-68
2022/01/24 08:55:22;;;;;;;24.97;15.17;;;6.50;99.90;;;;;;5049912;28;20672;-68
2022/01/24 08:57:49;;;;;;;26.90;15.13;;;6.50;99.90;;;;;;5049621;28;20222;-69
2022/01/24 09:00:16;;;;;;;24.50;15.40;;;6.50;99.90;;;;;;5055302;28;20206;-69
2022/01/24 09:02:43;;;;;;;25.00;15.63;;;6.50;99.90;;;;;;5054364;28;20723;-69
2022/01/24 09:05:11;;;;;;;24.30;14.40;;;6.40;99.90;;;;;;5050999;28;20257;-69
2022/01/24 09:07:38;;;;;;;27.80;15.57;;;6.40;99.90;;;;;;5050883;28;20203;-69
2022/01/24 09:10:07;;;;;;;26.37;15.57;;;6.50;99.90;;;;;;5037766;28;20231;-68
2022/01/24 09:12:35;;;;;;;27.13;16.30;;;6.50;99.90;;;;;;5045944;28;20247;-68
2022/01/24 09:15:02;;;;;;;26.83;14.83;;;6.50;99.90;;;;;;5050528;28;20649;-68
2022/01/24 09:17:29;;;;;;;22.23;13.47;;;6.50;99.90;;;;;;5050385;28;20365;-68
2022/01/24 09:19:56;;;;;;;21.97;13.73;;;6.60;99.90;;;;;;5050038;28;20622;-69
2022/01/24 09:22:25;;;;;;;22.10;13.10;;;6.60;99.90;;;;;;5049908;28;20260;-68
2022/01/24 09:24:52;;;;;;;23.40;13.17;;;6.60;99.90;;;;;;5048820;28;20810;-68
2022/01/24 09:27:19;;;;;;;22.57;14.00;;;6.60;99.90;;;;;;5049789;28;20296;-69
2022/01/24 09:29:48;;;;;;;22.73;12.70;;;6.50;99.90;;;;;;5050007;28;20272;-68
2022/01/24 09:32:15;;;;;;;21.77;13.10;;;6.50;99.90;;;;;;5048396;28;20199;-68
2022/01/24 09:34:42;;;;;;;20.33;11.47;;;6.50;99.90;;;;;;5049738;28;20476;-69
2022/01/24 09:37:09;;;;;;;21.47;12.27;;;6.60;99.90;;;;;;5051106;28;20207;-68
2022/01/24 09:39:36;;;;;;;21.27;13.13;;;6.50;99.90;;;;;;5050805;28;20272;-68
2022/01/24 09:42:03;;;;;;;19.37;11.47;;;6.60;99.90;;;;;;5049594;28;20718;-69
2022/01/24 09:44:30;;;;;;;20.83;12.43;;;6.60;99.90;;;;;;5050291;28;20206;-68
2022/01/24 09:46:59;;;;;;;21.03;12.73;;;6.70;99.90;;;;;;5050342;28;20199;-68
2022/01/24 09:49:26;;;;;;;22.13;12.50;;;6.70;99.90;;;;;;5049658;28;20243;-69
2022/01/24 09:51:53;;;;;;;22.80;12.90;;;6.70;99.90;;;;;;5050365;28;20266;-68
2022/01/24 09:54:20;;;;;;;20.93;12.90;;;6.70;99.90;;;;;;5048607;28;20195;-69
2022/01/24 09:56:47;;;;;;;21.90;12.77;;;6.70;99.90;;;;;;5050518;28;20203;-69
2022/01/24 09:59:14;;;;;;;21.53;12.27;;;6.70;99.90;;;;;;5049369;28;20630;-68
2022/01/24 10:01:42;;;;;;;21.00;12.77;;;6.80;99.90;;;;;;5050382;28;20261;-69
2022/01/24 10:04:16;;;;;;;20.80;12.37;;;6.80;99.90;;;;;;5049366;28;20207;-68
2022/01/24 10:07:04;;;;;;;21.50;12.00;;;6.80;99.90;;;;;;5052964;28;20294;-68
2022/01/24 10:09:35;;;;;;;21.50;12.23;;;6.80;99.90;;;;;;5052512;28;20238;-69
2022/01/24 10:12:17;;;;;;;21.40;12.40;;;6.80;99.90;;;;;;5054317;28;20222;-69
2022/01/24 10:17:31;;;;;;;21.63;12.07;;;6.80;99.90;;;;;;5052821;28;20201;-69
2022/01/24 10:20:17;;;;;;;21.23;11.97;;;6.90;99.90;;;;;;5052353;28;20210;-69
2022/01/24 10:22:59;;;;;;;20.33;11.57;;;6.90;99.90;;;;;;5053960;28;20406;-68
2022/01/24 10:25:27;;;;;;;19.17;11.43;;;6.90;99.90;;;;;;5052809;28;20553;-68
2022/01/24 10:28:01;;;;;;;20.43;12.00;;;6.80;99.90;;;;;;5053652;28;20253;-68
2022/01/24 10:30:28;;;;;;;20.27;11.90;;;7.00;99.90;;;;;;5052752;28;20309;-68
2022/01/24 10:32:56;;;;;;;19.80;11.43;;;7.00;99.90;;;;;;5051462;28;20313;-69
2022/01/24 10:35:28;;;;;;;19.03;11.73;;;7.00;99.90;;;;;;5053437;28;20693;-68
2022/01/24 10:38:34;;;;;;;19.13;11.50;;;7.00;99.90;;;;;;5052627;28;20203;-68
2022/01/24 10:41:12;;;;;;;18.33;10.80;;;7.00;99.90;;;;;;5052458;28;20585;-68
2022/01/24 10:43:41;;;;;;;19.73;10.70;;;7.00;99.90;;;;;;5052555;28;20207;-68
2022/01/24 10:46:10;;;;;;;19.20;11.53;;;7.00;99.90;;;;;;5053487;28;20558;-70
2022/01/24 10:48:39;;;;;;;17.93;10.17;;;7.00;99.90;;;;;;5049114;28;20254;-68
2022/01/24 10:51:11;;;;;;;18.67;10.77;;;7.00;99.90;;;;;;5033726;28;20432;-68
2022/01/24 10:53:42;;;;;;;19.60;10.53;;;7.00;99.90;;;;;;5033827;28;20241;-69
2022/01/24 10:56:29;;;;;;;18.57;10.57;;;7.00;99.90;;;;;;5033565;28;20235;-69
2022/01/24 10:59:05;;;;;;;17.53;9.53;;;7.00;99.90;;;;;;5033735;28;20228;-68
2022/01/24 11:01:32;;;;;;;17.33;10.37;;;7.00;99.90;;;;;;5033880;28;20261;-68
2022/01/24 11:04:01;;;;;;;16.10;9.27;;;7.00;99.90;;;;;;5033701;28;20204;-68
2022/01/24 11:06:31;;;;;;;15.07;8.80;;;7.00;99.90;;;;;;5033277;28;20239;-68
2022/01/24 11:09:14;;;;;;;16.43;9.20;;;7.10;99.90;;;;;;5033651;28;20258;-68
2022/01/24 11:11:42;;;;;;;14.37;8.87;;;7.10;99.90;;;;;;5031614;28;20627;-68
2022/01/24 11:14:13;;;;;;;15.83;9.53;;;7.10;99.90;;;;;;5033216;28;20646;-68
2022/01/24 11:16:40;;;;;;;16.17;9.03;;;7.10;99.90;;;;;;5032382;28;20238;-68
2022/01/24 11:19:12;;;;;;;17.27;8.27;;;7.10;99.90;;;;;;5033658;28;20701;-68
2022/01/24 11:21:42;;;;;;;14.77;8.50;;;7.10;99.90;;;;;;5033074;28;20257;-68
2022/01/24 11:24:10;;;;;;;10.00;6.43;;;7.10;99.90;;;;;;5032939;28;20241;-68
2022/01/24 11:26:37;;;;;;;9.90;5.60;;;7.10;99.90;;;;;;5033354;28;20682;-73
2022/01/24 11:29:05;;;;;;;9.33;5.10;;;7.00;99.90;;;;;;5033312;28;20200;-73
2022/01/24 11:31:41;;;;;;;8.63;4.93;;;7.00;99.90;;;;;;5032820;28;20321;-73
2022/01/24 11:34:16;;;;;;;7.60;4.53;;;7.10;99.90;;;;;;5032794;28;20691;-73
2022/01/24 11:36:45;;;;;;;7.40;4.90;;;7.10;99.90;;;;;;5033048;28;20247;-73
2022/01/24 11:39:13;;;;;;;9.57;5.20;;;7.10;99.90;;;;;;5033318;28;20206;-73
2022/01/24 11:41:41;;;;;;;5.80;4.00;;;7.10;99.90;;;;;;5032792;28;20204;-73
2022/01/24 11:44:10;;;;;;;4.90;4.10;;;7.10;99.90;;;;;;5032935;28;20976;-73
2022/01/24 11:46:44;;;;;;;4.50;3.47;;;7.10;99.90;;;;;;5033151;28;20291;-73
2022/01/24 11:49:14;;;;;;;5.40;3.87;;;7.10;79.20;;;;;;5033068;28;20575;-73
2022/01/24 11:51:41;;;;;;;4.70;3.70;;;7.10;38.00;;;;;;5032815;28;20223;-73
2022/01/24 11:54:32;;;;;;;6.83;3.90;;;7.10;99.90;;;;;;5032337;28;20204;-73
2022/01/24 11:57:20;;;;;;;5.90;4.07;;;7.10;99.90;;;;;;5032939;28;20215;-73
2022/01/24 11:59:48;;;;;;;5.07;3.67;;;7.10;99.90;;;;;;5032433;28;20235;-73
2022/01/24 12:02:19;;;;;;;5.67;4.27;;;7.00;99.90;;;;;;5032997;28;20207;-73
2022/01/24 12:04:57;;;;;;;3.73;3.30;;;7.10;99.90;;;;;;5032122;28;20249;-73
2022/01/24 12:07:26;;;;;;;4.60;3.50;;;7.10;99.90;;;;;;5032517;28;20203;-73
2022/01/24 12:09:56;;;;;;;4.50;3.93;;;7.00;99.90;;;;;;5032245;28;20203;-73
2022/01/24 12:12:47;;;;;;;4.63;3.70;;;7.10;99.90;;;;;;5032407;28;20223;-73
2022/01/24 12:15:49;;;;;;;4.83;3.87;;;7.10;99.90;;;;;;5032225;28;20204;-73
2022/01/24 12:18:21;;;;;;;5.60;4.17;;;7.10;99.90;;;;;;5027193;28;20602;-73
2022/01/24 12:20:53;;;;;;;4.70;3.90;;;7.10;99.90;;;;;;5032321;28;20658;-73
2022/01/24 12:23:38;;;;;;;3.57;3.20;;;7.00;99.90;;;;;;5031989;28;20647;-73
2022/01/24 12:26:09;;;;;;;3.50;2.60;;;7.00;99.90;;;;;;5031911;28;20212;-73
2022/01/24 12:28:48;;;;;;;2.50;2.13;;;7.00;99.90;;;;;;5032296;28;20203;-73
2022/01/24 12:31:21;;;;;;;2.60;2.03;;;7.00;27.60;;;;;;5046087;28;20308;-73
2022/01/24 12:34:14;;;;;;;3.83;2.17;;;7.00;1.00;;;;;;5057493;28;20218;-73
2022/01/24 12:37:08;;;;;;;2.80;2.33;;;7.00;1.00;;;;;;5049027;28;20211;-73
2022/01/24 12:39:58;;;;;;;4.10;2.50;;;7.00;1.00;;;;;;5064094;28;20261;-73
2022/01/24 12:42:39;;;;;;;4.57;2.77;;;7.00;1.00;;;;;;5051520;28;20719;-73
2022/01/24 12:48:06;;;;;;;3.20;2.90;;;7.00;1.00;;;;;;5048684;28;20253;-73
2022/01/24 12:50:33;;;;;;;4.20;2.83;;;7.00;1.00;;;;;;5050615;28;20207;-73
2022/01/24 12:53:00;;;;;;;4.73;3.13;;;7.00;1.00;;;;;;5049930;28;20234;-73
2022/01/24 12:55:27;;;;;;;5.73;3.53;;;7.00;1.00;;;;;;5049749;28;20249;-73
2022/01/24 12:57:56;;;;;;;5.03;3.43;;;7.00;1.00;;;;;;5051152;28;20249;-73
2022/01/24 13:00:23;;;;;;;5.40;3.83;;;7.00;16.90;;;;;;5049856;28;20649;-73
2022/01/24 13:02:50;;;;;;;5.20;3.47;;;7.00;86.30;;;;;;5060021;28;20203;-73
2022/01/24 13:05:20;;;;;;;5.43;4.30;;;7.00;99.40;;;;;;5050794;28;20207;-73
2022/01/24 13:07:53;;;;;;;6.43;4.17;;;7.00;99.90;;;;;;5051211;28;20591;-73
2022/01/24 13:10:22;;;;;;;4.47;3.97;;;7.00;99.90;;;;;;5051204;28;20206;-74
2022/01/24 13:13:00;;;;;;;3.93;3.53;;;7.00;99.90;;;;;;5049621;28;20230;-73
2022/01/24 13:20:28;;;;;;;5.53;4.13;;;7.00;99.90;;;;;;5067176;28;20235;-72
2022/01/24 13:21:16;;;;;;;4.47;3.93;;;7.00;99.90;;;;;;5049107;28;20203;-73
2022/01/24 13:23:50;;;;;;;6.07;3.90;;;6.90;99.90;;;;;;5051053;28;20677;-73
2022/01/24 13:26:17;;;;;;;5.60;3.57;;;6.90;99.90;;;;;;5051004;28;20617;-73
2022/01/24 13:28:45;;;;;;;4.03;3.40;;;6.80;98.30;;;;;;5049789;28;20203;-73
2022/01/24 13:31:13;;;;;;;3.50;3.20;;;6.80;55.20;;;;;;5050359;28;20223;-74
2022/01/24 13:33:45;;;;;;;4.77;3.90;;;6.80;33.10;;;;;;5050200;28;20556;-74
2022/01/24 13:36:13;;;;;;;3.40;3.10;;;6.90;91.60;;;;;;5050477;28;20290;-73
2022/01/24 13:38:42;;;;;;;4.73;3.90;;;6.90;99.90;;;;;;5048953;28;20210;-74
2022/01/24 13:41:11;;;;;;;4.23;3.60;;;6.80;25.00;;;;;;5047740;28;20199;-72
2022/01/24 13:43:42;;;;;;;4.07;3.40;;;6.80;19.70;;;;;;5049387;28;20296;-72
2022/01/24 13:46:12;;;;;;;5.37;3.90;;;6.80;19.70;;;;;;5045748;28;20276;-72
2022/01/24 13:48:43;;;;;;;4.00;3.60;;;6.80;4.20;;;;;;5048883;28;20207;-72
2022/01/24 13:51:12;;;;;;;4.17;3.33;;;6.80;1.00;;;;;;5049971;28;20260;-73
2022/01/24 13:53:41;;;;;;;3.50;3.20;;;6.70;1.00;;;;;;5051503;28;20272;-72
2022/01/24 13:56:30;;;;;;;4.57;3.17;;;6.70;1.00;;;;;;5050833;28;20300;-73
2022/01/24 13:59:09;;;;;;;4.17;3.30;;;6.80;1.00;;;;;;5046562;28;20199;-72
2022/01/24 14:01:40;;;;;;;6.03;3.27;;;6.70;1.00;;;;;;5049632;28;20576;-72
2022/01/24 14:04:08;;;;;;;5.03;3.20;;;6.80;1.00;;;;;;5051184;28;20199;-73
2022/01/24 14:06:38;;;;;;;4.33;3.23;;;6.80;19.40;;;;;;5051760;28;20290;-72
2022/01/24 14:09:09;;;;;;;2.90;2.70;;;6.80;23.70;;;;;;5049299;28;20235;-72
2022/01/24 14:11:44;;;;;;;3.63;3.30;;;6.80;58.90;;;;;;5050130;28;20268;-72
2022/01/24 14:14:15;;;;;;;4.13;3.57;;;6.80;75.10;;;;;;5052317;28;20206;-73
2022/01/24 14:16:54;;;;;;;6.83;4.00;;;6.80;91.80;;;;;;5050739;28;20596;-72
2022/01/24 14:19:32;;;;;;;3.40;3.10;;;6.70;91.30;;;;;;5048322;28;20616;-72